createdAt,value
2023-02-21T00:01:20.021Z,101811.19
2023-02-21T00:04:05.637Z,101828.78
2023-02-21T00:07:10.484Z,101822.19
2023-02-21T00:10:10.079Z,101810.66
2023-02-21T00:12:55.610Z,101873.31
2023-02-21T00:15:41.069Z,101834.53
2023-02-21T00:18:46.488Z,101837.31
2023-02-21T00:22:05.471Z,101830.25
2023-02-21T00:25:04.780Z,101868.19
2023-02-21T00:27:50.351Z,101873.38
2023-02-21T00:30:35.964Z,101869.00
2023-02-21T00:33:21.547Z,101791.81
2023-02-21T00:36:07.182Z,101806.66
2023-02-21T00:39:13.493Z,101833.84
2023-02-21T00:42:12.726Z,101858.59
2023-02-21T00:44:58.192Z,101809.91
2023-02-21T00:47:43.838Z,101834.47
2023-02-21T00:50:29.864Z,101827.13
2023-02-21T00:53:48.473Z,101826.81
2023-02-21T00:57:04.673Z,101851.00
2023-02-21T00:59:50.303Z,101855.75
2023-02-21T01:02:36.177Z,101809.06
2023-02-21T01:05:22.535Z,101826.41
2023-02-21T01:08:08.055Z,101849.50
2023-02-21T01:10:54.267Z,101648.16
2023-02-21T01:13:40.942Z,101765.25
2023-02-21T01:16:27.008Z,101841.66
2023-02-21T01:19:32.501Z,101734.31
2023-02-21T01:22:31.687Z,101830.78
2023-02-21T01:25:17.221Z,101810.69
2023-02-21T01:28:02.663Z,101837.53
2023-02-21T01:30:54.608Z,101759.81
2023-02-21T01:34:06.201Z,101756.44
2023-02-21T01:36:51.632Z,101786.13
2023-02-21T01:40:00.508Z,101800.28
2023-02-21T01:42:59.660Z,101774.06
2023-02-21T01:46:07.919Z,101822.13
2023-02-21T01:48:55.555Z,101769.50
2023-02-21T01:52:08.504Z,101804.56
2023-02-21T01:55:28.568Z,101737.31
2023-02-21T01:58:28.105Z,101819.59
2023-02-21T02:01:16.158Z,101746.66
2023-02-21T02:04:01.990Z,101787.19
2023-02-21T02:06:48.176Z,101829.75
2023-02-21T02:09:53.537Z,101806.50
2023-02-21T02:13:05.219Z,101804.13
2023-02-21T02:15:48.552Z,101679.88
2023-02-21T02:18:42.529Z,101807.84
2023-02-21T02:21:29.215Z,101796.16
2023-02-21T02:24:30.336Z,101799.53
2023-02-21T02:27:19.284Z,101796.81
2023-02-21T02:29:55.616Z,101802.78
2023-02-21T02:32:51.133Z,101796.63
2023-02-21T02:35:26.042Z,101754.41
2023-02-21T02:38:16.834Z,101797.75
2023-02-21T02:40:46.752Z,101797.22
2023-02-21T02:43:29.027Z,101800.41
2023-02-21T02:46:17.881Z,101803.81
2023-02-21T02:49:12.553Z,101740.91
2023-02-21T02:52:13.671Z,101713.81
2023-02-21T02:55:26.749Z,101783.72
2023-02-21T02:57:54.177Z,101784.66
2023-02-21T03:00:22.277Z,101787.09
2023-02-21T03:03:11.031Z,101779.00
2023-02-21T03:05:38.151Z,101786.31
2023-02-21T03:08:32.858Z,101777.59
2023-02-21T03:11:09.576Z,101781.78
2023-02-21T03:13:52.321Z,101779.66
2023-02-21T03:16:24.452Z,101776.53
2023-02-21T03:19:20.577Z,101775.72
2023-02-21T03:22:26.573Z,101783.72
2023-02-21T03:25:08.973Z,101776.28
2023-02-21T03:27:39.475Z,101778.41
2023-02-21T03:30:27.312Z,101758.59
2023-02-21T03:33:14.580Z,101777.00
2023-02-21T03:36:18.576Z,101781.75
2023-02-21T03:39:01.124Z,101740.94
2023-02-21T03:41:28.301Z,101786.03
2023-02-21T03:43:55.965Z,101531.31
2023-02-21T03:46:22.853Z,101720.50
2023-02-21T03:49:09.559Z,101693.47
2023-02-21T03:52:03.759Z,101671.25
2023-02-21T03:54:44.303Z,101719.91
2023-02-21T03:57:15.425Z,101703.72
2023-02-21T03:59:45.821Z,101773.84
2023-02-21T04:02:14.072Z,101776.34
2023-02-21T04:04:41.899Z,101712.59
2023-02-21T04:07:12.962Z,101766.19
2023-02-21T04:09:40.014Z,101772.44
2023-02-21T04:12:08.348Z,101779.91
2023-02-21T04:14:37.635Z,101780.97
2023-02-21T04:17:24.619Z,101689.13
2023-02-21T04:20:28.571Z,101766.44
2023-02-21T04:23:26.288Z,101727.66
2023-02-21T04:25:53.348Z,101640.22
2023-02-21T04:28:30.190Z,101716.41
2023-02-21T04:30:57.452Z,101720.25
2023-02-21T04:33:24.712Z,101748.88
2023-02-21T04:35:51.633Z,101732.38
2023-02-21T04:38:32.671Z,101614.88
2023-02-21T04:41:00.090Z,101564.53
2023-02-21T04:43:27.152Z,101734.38
2023-02-21T04:45:54.170Z,101763.31
2023-02-21T04:48:24.272Z,101757.97
2023-02-21T04:51:15.186Z,101766.00
2023-02-21T04:54:09.790Z,101644.66
2023-02-21T04:56:50.467Z,101705.00
2023-02-21T04:59:17.454Z,101699.34
2023-02-21T05:01:44.373Z,101633.84
2023-02-21T05:04:11.397Z,101700.38
2023-02-21T05:06:38.538Z,101587.47
2023-02-21T05:09:05.416Z,101676.88
2023-02-21T05:11:37.103Z,101739.78
2023-02-21T05:14:04.366Z,101738.94
2023-02-21T05:16:31.230Z,101701.66
2023-02-21T05:19:18.625Z,101694.97
2023-02-21T05:22:01.918Z,101741.31
2023-02-21T05:24:31.043Z,101722.31
2023-02-21T05:27:17.619Z,101728.91
2023-02-21T05:30:18.686Z,101700.38
2023-02-21T05:33:20.636Z,101582.50
2023-02-21T05:35:55.255Z,101736.31
2023-02-21T05:38:24.838Z,101663.63
2023-02-21T05:40:51.986Z,101699.78
2023-02-21T05:43:19.703Z,101715.84
2023-02-21T05:46:06.667Z,101738.19
2023-02-21T05:48:47.737Z,101706.94
2023-02-21T05:51:34.655Z,101673.47
2023-02-21T05:54:18.311Z,101732.78
2023-02-21T05:56:46.798Z,101575.81
2023-02-21T05:59:34.677Z,101735.34
2023-02-21T06:02:15.831Z,101688.41
2023-02-21T06:04:42.898Z,101743.72
2023-02-21T06:07:29.654Z,101665.03
2023-02-21T06:10:10.637Z,101688.53
2023-02-21T06:12:37.683Z,101673.63
2023-02-21T06:15:08.008Z,101762.81
2023-02-21T06:17:55.746Z,101536.25
2023-02-21T06:20:57.671Z,101745.31
2023-02-21T06:23:59.680Z,101741.34
2023-02-21T06:26:45.063Z,101744.81
2023-02-21T06:29:12.644Z,101606.69
2023-02-21T06:31:40.510Z,101696.66
2023-02-21T06:34:07.579Z,101713.13
2023-02-21T06:36:35.746Z,101738.22
2023-02-21T06:39:02.656Z,101687.38
2023-02-21T06:41:31.155Z,101708.53
2023-02-21T06:43:59.020Z,101712.81
2023-02-21T06:46:29.043Z,101745.91
2023-02-21T06:49:01.662Z,101696.81
2023-02-21T06:51:54.654Z,101750.28
2023-02-21T06:54:55.680Z,101758.34
2023-02-21T06:57:36.274Z,101730.00
2023-02-21T07:00:05.374Z,101741.22
2023-02-21T07:02:32.241Z,101752.88
2023-02-21T07:04:59.177Z,101766.19
2023-02-21T07:07:26.076Z,101770.50
2023-02-21T07:09:53.046Z,101735.28
2023-02-21T07:12:19.891Z,101759.16
2023-02-21T07:14:46.946Z,101712.75
2023-02-21T07:17:33.700Z,101742.06
2023-02-21T07:20:14.262Z,101730.91
2023-02-21T07:22:41.209Z,101724.22
2023-02-21T07:25:08.162Z,101766.41
2023-02-21T07:27:55.697Z,101743.13
2023-02-21T07:30:56.734Z,101733.81
2023-02-21T07:33:37.377Z,101702.03
2023-02-21T07:36:04.591Z,101647.69
2023-02-21T07:38:31.878Z,101744.88
2023-02-21T07:41:02.232Z,101625.41
2023-02-21T07:43:30.696Z,101750.38
2023-02-21T07:45:58.416Z,101646.06
2023-02-21T07:48:25.630Z,101785.84
2023-02-21T07:51:12.855Z,101673.69
2023-02-21T07:54:13.706Z,101767.19
2023-02-21T07:57:14.699Z,101682.44
2023-02-21T08:00:15.736Z,101764.81
2023-02-21T08:02:56.438Z,101764.25
2023-02-21T08:05:23.904Z,101750.56
2023-02-21T08:08:10.733Z,101744.84
2023-02-21T08:10:51.590Z,101736.09
2023-02-21T08:13:18.449Z,101730.91
2023-02-21T08:15:45.566Z,101699.84
2023-02-21T08:18:35.725Z,101764.59
2023-02-21T08:21:16.715Z,101775.03
2023-02-21T08:24:07.736Z,101752.66
2023-02-21T08:27:13.717Z,101724.34
2023-02-21T08:29:40.764Z,101745.13
2023-02-21T08:32:07.876Z,101715.56
2023-02-21T08:34:35.273Z,101768.38
2023-02-21T08:37:06.760Z,101711.00
2023-02-21T08:39:33.740Z,101601.38
2023-02-21T08:42:00.655Z,101747.50
2023-02-21T08:44:27.639Z,101721.00
2023-02-21T08:46:54.728Z,101601.25
2023-02-21T08:49:22.070Z,101572.22
2023-02-21T08:52:09.772Z,101630.63
2023-02-21T08:55:10.783Z,101755.75
2023-02-21T08:57:54.528Z,101764.94
2023-02-21T09:00:25.233Z,101650.50
2023-02-21T09:02:53.389Z,101761.19
2023-02-21T09:05:27.437Z,101763.59
2023-02-21T09:07:59.582Z,101764.22
2023-02-21T09:10:34.107Z,101766.94
2023-02-21T09:13:21.029Z,101759.09
2023-02-21T09:16:21.853Z,101749.69
2023-02-21T09:19:23.925Z,101707.53
2023-02-21T09:22:06.495Z,101718.06
2023-02-21T09:24:33.758Z,101696.69
2023-02-21T09:27:03.367Z,101521.75
2023-02-21T09:29:44.965Z,101753.63
2023-02-21T09:32:12.486Z,101708.47
2023-02-21T09:34:40.392Z,101751.25
2023-02-21T09:37:07.794Z,101628.91
2023-02-21T09:39:38.201Z,101748.78
2023-02-21T09:42:05.451Z,101639.25
2023-02-21T09:44:32.532Z,101700.19
2023-02-21T09:47:07.653Z,101732.16
2023-02-21T09:49:40.538Z,101749.75
2023-02-21T09:52:43.870Z,101699.34
2023-02-21T09:55:30.732Z,101749.75
2023-02-21T09:57:58.472Z,101752.06
2023-02-21T10:00:52.889Z,101754.16
2023-02-21T10:03:42.704Z,101748.72
2023-02-21T10:06:20.985Z,101733.31
2023-02-21T10:09:04.439Z,101743.91
2023-02-21T10:12:22.821Z,101741.22
2023-02-21T10:15:45.841Z,101752.75
2023-02-21T10:19:29.835Z,101741.03
2023-02-21T10:22:20.622Z,101727.22
2023-02-21T10:24:49.631Z,101627.47
2023-02-21T10:27:21.633Z,101688.19
2023-02-21T10:29:55.580Z,101733.84
2023-02-21T10:32:24.943Z,101725.22
2023-02-21T10:34:54.975Z,101711.19
2023-02-21T10:37:28.165Z,101742.66
2023-02-21T10:40:04.779Z,101716.94
2023-02-21T10:42:39.430Z,101680.88
2023-02-21T10:45:31.815Z,101655.13
2023-02-21T10:48:13.174Z,101438.53
2023-02-21T10:50:52.957Z,101690.59
2023-02-21T10:53:30.638Z,101719.00
2023-02-21T10:56:24.578Z,101718.03
2023-02-21T10:59:42.967Z,101417.72
2023-02-21T11:02:53.833Z,101713.38
2023-02-21T11:05:42.238Z,101697.94
2023-02-21T11:08:18.027Z,101429.78
2023-02-21T11:11:20.520Z,101696.16
2023-02-21T11:14:28.650Z,101515.97
2023-02-21T11:17:25.933Z,101490.94
2023-02-21T11:20:34.889Z,101636.34
2023-02-21T11:23:30.107Z,101452.00
2023-02-21T11:26:01.543Z,101537.75
2023-02-21T11:28:29.348Z,101395.75
2023-02-21T11:31:01.817Z,101659.19
2023-02-21T11:33:36.145Z,101388.59
2023-02-21T11:36:18.746Z,101562.19
2023-02-21T11:39:00.519Z,101649.03
2023-02-21T11:41:39.196Z,101419.66
2023-02-21T11:44:25.487Z,101628.41
2023-02-21T11:47:21.843Z,101641.94
2023-02-21T11:50:08.546Z,101624.47
2023-02-21T11:52:41.149Z,101621.09
2023-02-21T11:55:21.313Z,101579.94
2023-02-21T11:58:30.055Z,101459.72
2023-02-21T12:01:43.927Z,101520.16
2023-02-21T12:05:13.640Z,101610.63
2023-02-21T12:08:16.970Z,101600.66
2023-02-21T12:11:24.276Z,101600.94
2023-02-21T12:14:30.688Z,101590.06
2023-02-21T12:17:42.920Z,101431.75
2023-02-21T12:21:02.874Z,101587.09
2023-02-21T12:23:59.727Z,101582.28
2023-02-21T12:26:41.918Z,101572.53
2023-02-21T12:29:37.229Z,101576.06
2023-02-21T12:33:01.898Z,101577.50
2023-02-21T12:36:18.967Z,101564.63
2023-02-21T12:39:39.777Z,101558.25
2023-02-21T12:42:35.312Z,101558.16
2023-02-21T12:45:47.964Z,101270.53
2023-02-21T12:48:52.161Z,101487.94
2023-02-21T12:51:24.864Z,101538.44
2023-02-21T12:54:05.060Z,101538.28
2023-02-21T12:57:00.661Z,101513.22
2023-02-21T13:00:18.891Z,101506.50
2023-02-21T13:03:22.096Z,101519.19
2023-02-21T13:05:55.127Z,101407.69
2023-02-21T13:08:34.793Z,101472.88
2023-02-21T13:11:33.024Z,101514.09
2023-02-21T13:14:05.174Z,101387.88
2023-02-21T13:16:34.997Z,101384.66
2023-02-21T13:19:20.711Z,101458.88
2023-02-21T13:24:58.111Z,101430.00
2023-02-21T13:27:43.604Z,101482.31
2023-02-21T13:30:29.090Z,101477.34
2023-02-21T13:32:58.973Z,101361.97
2023-02-21T13:35:40.588Z,101368.69
2023-02-21T13:38:45.244Z,101172.53
2023-02-21T13:41:49.015Z,101466.88
2023-02-21T13:45:01.973Z,101282.31
2023-02-21T13:48:11.931Z,101467.97
2023-02-21T13:50:58.152Z,101354.47
2023-02-21T13:53:35.099Z,101191.41
2023-02-21T13:56:08.141Z,101461.13
2023-02-21T13:58:56.945Z,101410.72
2023-02-21T14:01:57.900Z,101356.13
2023-02-21T14:04:57.318Z,101450.91
2023-02-21T14:07:48.879Z,101451.97
2023-02-21T14:11:02.932Z,101441.06
2023-02-21T14:13:57.875Z,101396.09
2023-02-21T14:16:46.706Z,101448.16
2023-02-21T14:19:54.768Z,101447.13
2023-02-21T14:22:35.759Z,101381.69
2023-02-21T14:25:05.923Z,101444.56
2023-02-21T14:27:40.164Z,101369.13
2023-02-21T14:30:10.388Z,101435.47
2023-02-21T14:32:47.249Z,101359.59
2023-02-21T14:35:14.401Z,101433.31
2023-02-21T14:37:45.316Z,101427.56
2023-02-21T14:40:12.241Z,101421.44
2023-02-21T14:43:16.966Z,101427.59
2023-02-21T14:46:35.993Z,101423.63
2023-02-21T14:50:11.958Z,101373.03
2023-02-21T14:53:00.213Z,101418.63
2023-02-21T14:55:49.155Z,101421.72
2023-02-21T14:58:55.942Z,101374.91
2023-02-21T15:02:16.973Z,101342.78
2023-02-21T15:05:44.561Z,101413.09
2023-02-21T15:09:05.155Z,101306.84
2023-02-21T15:11:51.319Z,101305.16
2023-02-21T15:14:28.083Z,101275.50
2023-02-21T15:17:26.187Z,101413.19
2023-02-21T15:20:17.236Z,101327.81
2023-02-21T15:22:46.803Z,101126.28
2023-02-21T15:25:18.414Z,101303.09
2023-02-21T15:27:50.351Z,101409.69
2023-02-21T15:30:24.035Z,101401.06
2023-02-21T15:33:05.128Z,101397.78
2023-02-21T15:35:39.297Z,101105.03
2023-02-21T15:38:24.226Z,101215.69
2023-02-21T15:40:59.190Z,101092.00
2023-02-21T15:43:45.652Z,101150.91
2023-02-21T15:46:41.141Z,101353.13
2023-02-21T15:49:56.077Z,101405.00
2023-02-21T15:52:39.747Z,101301.22
2023-02-21T15:55:13.835Z,101394.66
2023-02-21T15:57:40.641Z,101398.06
2023-02-21T16:00:53.023Z,101359.56
2023-02-21T16:03:39.414Z,101404.50
2023-02-21T16:06:17.768Z,101251.00
2023-02-21T16:09:15.817Z,101395.81
2023-02-21T16:11:48.302Z,101407.94
2023-02-21T16:14:37.060Z,101408.66
2023-02-21T16:17:27.018Z,101409.25
2023-02-21T16:20:16.844Z,101388.59
2023-02-21T16:23:06.680Z,101360.75
2023-02-21T16:25:34.481Z,101334.44
2023-02-21T16:28:02.219Z,101357.16
2023-02-21T16:30:31.830Z,101378.84
2023-02-21T16:33:20.027Z,101412.16
2023-02-21T16:36:06.686Z,101407.13
2023-02-21T16:38:33.671Z,101370.75
2023-02-21T16:41:00.600Z,101370.41
2023-02-21T16:43:48.007Z,101371.91
2023-02-21T16:46:49.013Z,101391.69
2023-02-21T16:49:29.636Z,101386.28
2023-02-21T16:51:56.935Z,101314.41
2023-02-21T16:54:24.079Z,101364.84
2023-02-21T16:56:53.538Z,101425.59
2023-02-21T16:59:22.774Z,101381.22
2023-02-21T17:01:50.551Z,101423.53
2023-02-21T17:04:40.042Z,101372.72
2023-02-21T17:07:41.062Z,101365.41
2023-02-21T17:10:35.519Z,101391.06
2023-02-21T17:13:03.753Z,101396.81
2023-02-21T17:15:32.164Z,101393.81
2023-02-21T17:18:20.079Z,101387.56
2023-02-21T17:21:01.755Z,101406.66
2023-02-21T17:23:28.983Z,101394.06
2023-02-21T17:25:56.049Z,101430.69
2023-02-21T17:28:22.961Z,101381.59
2023-02-21T17:30:49.925Z,101400.31
2023-02-21T17:33:16.927Z,101350.38
2023-02-21T17:35:43.989Z,101379.41
2023-02-21T17:38:11.056Z,101459.91
2023-02-21T17:40:37.997Z,101417.47
2023-02-21T17:43:08.767Z,101380.31
2023-02-21T17:45:56.087Z,101414.19
2023-02-21T17:48:58.054Z,101431.28
2023-02-21T17:51:40.170Z,101458.69
2023-02-21T17:54:07.312Z,101400.88
2023-02-21T17:56:34.272Z,101263.84
2023-02-21T17:59:01.761Z,101348.28
2023-02-21T18:01:29.543Z,101464.63
2023-02-21T18:03:56.563Z,101402.41
2023-02-21T18:06:25.117Z,101456.84
2023-02-21T18:08:53.154Z,101349.84
2023-02-21T18:11:20.244Z,101456.09
2023-02-21T18:13:47.616Z,101453.91
2023-02-21T18:16:35.104Z,101437.66
2023-02-21T18:19:38.079Z,101462.34
2023-02-21T18:22:39.144Z,101154.28
2023-02-21T18:25:11.039Z,101296.94
2023-02-21T18:27:38.346Z,101328.88
2023-02-21T18:30:06.811Z,101339.94
2023-02-21T18:32:54.212Z,101418.72
2023-02-21T18:35:55.115Z,101137.09
2023-02-21T18:38:35.930Z,101210.59
2023-02-21T18:41:02.908Z,101332.63
2023-02-21T18:43:30.975Z,101392.47
2023-02-21T18:45:58.946Z,101396.75
2023-02-21T18:48:27.040Z,101341.44
2023-02-21T18:50:54.297Z,101399.03
2023-02-21T18:53:23.355Z,101207.44
2023-02-21T18:55:52.818Z,101410.22
2023-02-21T18:58:20.248Z,101438.88
2023-02-21T19:00:49.805Z,101160.53
2023-02-21T19:03:21.046Z,101168.88
2023-02-21T19:05:49.638Z,101222.28
2023-02-21T19:08:18.492Z,101230.91
2023-02-21T19:10:46.226Z,101229.97
2023-02-21T19:13:13.519Z,101155.19
2023-02-21T19:16:01.381Z,101348.50
2023-02-21T19:19:02.146Z,101153.31
2023-02-21T19:22:03.280Z,101158.63
2023-02-21T19:25:05.318Z,101164.72
2023-02-21T19:27:39.947Z,101222.44
2023-02-21T19:30:12.675Z,101281.59
2023-02-21T19:33:01.270Z,101386.31
2023-02-21T19:35:45.181Z,101321.91
2023-02-21T19:38:12.418Z,101344.97
2023-02-21T19:40:39.767Z,101129.13
2023-02-21T19:43:27.163Z,101137.97
2023-02-21T19:46:26.264Z,101448.25
2023-02-21T19:48:54.277Z,101128.28
2023-02-21T19:51:48.589Z,101338.69
2023-02-21T19:54:30.169Z,101464.34
2023-02-21T19:57:02.996Z,101210.59
2023-02-21T19:59:30.331Z,101306.47
2023-02-21T20:01:57.718Z,101389.22
2023-02-21T20:04:25.390Z,101133.59
2023-02-21T20:06:54.998Z,101325.69
2023-02-21T20:09:26.288Z,101285.31
2023-02-21T20:11:58.941Z,101458.13
2023-02-21T20:14:27.093Z,101174.53
2023-02-21T20:17:14.205Z,101369.16
2023-02-21T20:20:11.509Z,101162.84
2023-02-21T20:22:54.122Z,101186.44
2023-02-21T20:25:43.429Z,101224.94
2023-02-21T20:28:27.044Z,101343.63
2023-02-21T20:30:54.222Z,101190.19
2023-02-21T20:33:23.223Z,101203.34
2023-02-21T20:35:51.535Z,101169.38
2023-02-21T20:38:19.915Z,101209.16
2023-02-21T20:40:47.981Z,101379.00
2023-02-21T20:43:49.178Z,101263.31
2023-02-21T20:46:29.654Z,101163.38
2023-02-21T20:49:21.294Z,101204.84
2023-02-21T20:52:03.543Z,101471.78
2023-02-21T20:54:30.672Z,101375.25
2023-02-21T20:56:58.018Z,101213.41
2023-02-21T20:59:28.227Z,101475.28
2023-02-21T21:01:55.914Z,101493.50
2023-02-21T21:04:29.389Z,101481.63
2023-02-21T21:06:59.847Z,101189.06
2023-02-21T21:09:34.372Z,101476.28
2023-02-21T21:12:25.335Z,101429.03
2023-02-21T21:15:09.480Z,101131.34
2023-02-21T21:17:56.180Z,101219.22
2023-02-21T21:20:58.255Z,101346.75
2023-02-21T21:23:59.212Z,101366.78
2023-02-21T21:26:53.823Z,101351.72
2023-02-21T21:29:25.273Z,101166.59
2023-02-21T21:31:54.777Z,101473.22
2023-02-21T21:34:23.636Z,101389.00
2023-02-21T21:37:04.009Z,101151.81
2023-02-21T21:39:35.437Z,101194.50
2023-02-21T21:42:05.854Z,101159.94
2023-02-21T21:45:00.248Z,101375.84
2023-02-21T21:48:02.223Z,101244.38
2023-02-21T21:51:03.214Z,101379.00
2023-02-21T21:53:43.916Z,101221.91
2023-02-21T21:56:11.463Z,101245.81
2023-02-21T21:58:38.565Z,101384.59
2023-02-21T22:01:06.071Z,101243.59
2023-02-21T22:03:39.457Z,101305.28
2023-02-21T22:06:06.874Z,101464.91
2023-02-21T22:08:37.866Z,101323.03
2023-02-21T22:11:09.959Z,101395.25
2023-02-21T22:13:39.056Z,101267.50
2023-02-21T22:16:06.892Z,101207.00
2023-02-21T22:18:48.300Z,101156.84
2023-02-21T22:21:52.252Z,101291.84
2023-02-21T22:24:33.748Z,101352.16
2023-02-21T22:27:00.786Z,101176.13
2023-02-21T22:29:27.830Z,101178.72
2023-02-21T22:31:54.923Z,101421.19
2023-02-21T22:34:24.995Z,101258.84
2023-02-21T22:36:54.902Z,101168.75
2023-02-21T22:39:23.214Z,101227.81
2023-02-21T22:42:12.294Z,101194.34
2023-02-21T22:44:52.862Z,101260.41
2023-02-21T22:47:19.899Z,101334.53
2023-02-21T22:50:07.285Z,101466.25
2023-02-21T22:53:14.231Z,101352.00
2023-02-21T22:55:55.696Z,101153.03
2023-02-21T22:58:22.904Z,101170.06
2023-02-21T23:00:52.621Z,101172.13
2023-02-21T23:03:20.201Z,101258.94
2023-02-21T23:05:50.173Z,101195.09
2023-02-21T23:08:22.962Z,101128.16
2023-02-21T23:10:50.309Z,101464.16
2023-02-21T23:13:38.285Z,101130.38
2023-02-21T23:16:39.275Z,101330.38
2023-02-21T23:19:42.237Z,101140.97
2023-02-21T23:22:25.171Z,101305.13
2023-02-21T23:24:52.092Z,101401.97
2023-02-21T23:27:21.192Z,101295.19
2023-02-21T23:29:49.920Z,101354.47
2023-02-21T23:32:19.963Z,101147.91
2023-02-21T23:34:50.827Z,101315.28
2023-02-21T23:37:17.831Z,101128.78
2023-02-21T23:39:46.792Z,101159.09
2023-02-21T23:42:17.474Z,101157.06
2023-02-21T23:45:04.276Z,101330.97
2023-02-21T23:48:07.304Z,101150.25
2023-02-21T23:50:58.706Z,101406.59
2023-02-21T23:53:29.306Z,101314.81
2023-02-21T23:56:00.587Z,101163.78
2023-02-21T23:58:31.675Z,101363.50
